Time;durP1;ratioP1;P1;durP2;ratioP2;P2;SDS_P1;SDS_P2;PMS_P1;PMS_P2;Temp;Humidity;BMP_temperature;BMP_pressure;BME280_temperature;BME280_humidity;BME280_pressure;Samples;Min_cycle;Max_cycle;Signal;HPM_P1;HPM_P2
2023/05/28 00:01:45;;;;;;;1999.90;999.90;;;11.20;99.90;;;;;;6346023;22;20004;-82
2023/05/28 00:04:11;;;;;;;1999.90;999.90;;;11.20;99.90;;;;;;6317684;22;20022;-77
2023/05/28 00:06:36;;;;;;;1999.90;999.90;;;11.10;99.90;;;;;;6314645;22;20499;-78
2023/05/28 00:09:02;;;;;;;1999.90;999.90;;;11.10;99.90;;;;;;6314640;22;20346;-77
2023/05/28 00:11:27;;;;;;;1999.90;999.90;;;11.10;99.90;;;;;;6314504;22;20158;-77
2023/05/28 00:13:53;;;;;;;1999.90;999.90;;;11.10;99.90;;;;;;6314317;22;19999;-77
2023/05/28 00:16:19;;;;;;;1999.90;999.90;;;11.00;99.90;;;;;;6314587;22;20008;-77
2023/05/28 00:18:45;;;;;;;1999.90;999.90;;;11.00;99.90;;;;;;6314637;22;20000;-79
2023/05/28 00:21:11;;;;;;;1999.90;999.90;;;11.00;99.90;;;;;;6314124;22;20004;-77
2023/05/28 00:23:36;;;;;;;1999.90;999.90;;;10.90;99.90;;;;;;6314329;22;19995;-77
2023/05/28 00:26:02;;;;;;;1999.90;999.90;;;10.90;99.90;;;;;;6286677;22;20094;-77
2023/05/28 00:28:28;;;;;;;1999.90;999.90;;;10.90;99.90;;;;;;6315107;22;20016;-77
2023/05/28 00:30:53;;;;;;;1999.90;999.90;;;10.90;99.90;;;;;;6287481;22;20435;-77
2023/05/28 00:33:19;;;;;;;1999.90;999.90;;;10.80;99.90;;;;;;6314837;22;20000;-77
2023/05/28 00:35:44;;;;;;;1999.90;999.90;;;10.80;99.90;;;;;;6314582;22;20030;-78
2023/05/28 00:38:10;;;;;;;1999.90;999.90;;;10.80;99.90;;;;;;6286923;22;20039;-77
2023/05/28 00:40:35;;;;;;;1999.90;999.90;;;10.80;99.90;;;;;;6314594;22;20008;-77
2023/05/28 00:43:01;;;;;;;1999.90;999.90;;;10.70;99.90;;;;;;6314246;22;20504;-78
2023/05/28 00:45:27;;;;;;;1999.90;999.90;;;10.70;99.90;;;;;;6286669;22;20523;-80
2023/05/28 00:47:52;;;;;;;1999.90;999.90;;;10.70;99.90;;;;;;6338884;22;20004;-77
2023/05/28 00:50:20;;;;;;;1999.90;999.90;;;10.70;99.90;;;;;;6314525;22;20394;-77
2023/05/28 00:52:48;;;;;;;1999.90;999.90;;;10.70;99.90;;;;;;6338580;22;20043;-80
2023/05/28 00:55:15;;;;;;;1999.90;999.90;;;10.70;99.90;;;;;;6286382;22;20099;-77
2023/05/28 00:57:41;;;;;;;1999.90;999.90;;;10.60;99.90;;;;;;6286597;22;20027;-77
2023/05/28 01:00:08;;;;;;;1999.90;999.90;;;10.60;99.90;;;;;;6286790;22;20007;-77
2023/05/28 01:02:34;;;;;;;1999.90;999.90;;;10.60;99.90;;;;;;6337886;22;20820;-79
2023/05/28 01:05:00;;;;;;;1999.90;999.90;;;10.50;99.90;;;;;;6286401;22;20011;-77
2023/05/28 01:07:26;;;;;;;1999.90;999.90;;;10.50;99.90;;;;;;6314370;22;20095;-77
2023/05/28 01:09:52;;;;;;;1999.90;999.90;;;10.40;99.90;;;;;;6314501;22;20067;-77
2023/05/28 01:12:18;;;;;;;1999.90;999.90;;;10.40;99.90;;;;;;6286360;22;20019;-77
2023/05/28 01:14:44;;;;;;;1999.90;999.90;;;10.30;99.90;;;;;;6314246;22;20026;-77
2023/05/28 01:17:11;;;;;;;1999.90;999.90;;;10.30;99.90;;;;;;6314139;22;20018;-77
2023/05/28 01:19:37;;;;;;;1999.90;999.90;;;10.30;99.90;;;;;;6286758;22;20008;-77
2023/05/28 01:22:04;;;;;;;1999.90;999.90;;;10.30;99.90;;;;;;6313954;22;20008;-77
2023/05/28 01:24:34;;;;;;;1999.90;999.90;;;10.30;99.90;;;;;;6286323;22;20054;-77
2023/05/28 01:27:00;;;;;;;1999.90;999.90;;;10.30;99.90;;;;;;6314201;22;20008;-77
2023/05/28 01:29:26;;;;;;;1999.90;999.90;;;10.20;99.90;;;;;;6314197;22;20427;-77
2023/05/28 01:31:52;;;;;;;1999.90;999.90;;;10.20;99.90;;;;;;6313985;22;20012;-77
2023/05/28 01:34:17;;;;;;;1999.90;999.90;;;10.30;99.90;;;;;;6285736;22;20082;-77
2023/05/28 01:36:57;;;;;;;1999.90;999.90;;;10.20;99.90;;;;;;6314332;22;20010;-77
2023/05/28 01:39:26;;;;;;;1999.90;999.90;;;10.20;99.90;;;;;;6286564;22;20004;-78
2023/05/28 01:41:53;;;;;;;1999.90;999.90;;;10.20;99.90;;;;;;6313910;22;20008;-77
2023/05/28 01:44:19;;;;;;;1999.90;999.90;;;10.10;99.90;;;;;;6313875;22;20083;-77
2023/05/28 01:46:46;;;;;;;1999.90;999.90;;;10.10;99.90;;;;;;6286195;22;20062;-77
2023/05/28 01:49:12;;;;;;;1999.90;999.90;;;10.00;99.90;;;;;;6313973;22;20400;-77
2023/05/28 01:51:38;;;;;;;1999.90;999.90;;;10.00;99.90;;;;;;6313689;22;20011;-77
2023/05/28 01:54:04;;;;;;;1999.90;999.90;;;10.00;99.90;;;;;;6286165;22;20091;-78
2023/05/28 01:56:29;;;;;;;1999.90;999.90;;;10.00;99.90;;;;;;6314080;22;20007;-77
2023/05/28 01:58:55;;;;;;;1999.90;999.90;;;9.90;99.90;;;;;;6314062;22;20011;-77
2023/05/28 02:01:29;;;;;;;1999.90;999.90;;;9.90;99.90;;;;;;6313568;22;20062;-77
2023/05/28 02:03:56;;;;;;;1999.90;999.90;;;9.90;99.90;;;;;;6285967;22;20058;-77
2023/05/28 02:06:23;;;;;;;1999.90;999.90;;;9.90;99.90;;;;;;6286447;22;20500;-77
2023/05/28 02:08:48;;;;;;;1999.90;999.90;;;9.80;99.90;;;;;;6314163;22;20442;-77
2023/05/28 02:11:14;;;;;;;1999.90;999.90;;;9.80;99.90;;;;;;6285901;22;20011;-77
2023/05/28 02:13:40;;;;;;;1999.90;999.90;;;9.80;99.90;;;;;;6286529;22;20012;-77
2023/05/28 02:16:06;;;;;;;1999.90;999.90;;;9.80;99.90;;;;;;6315183;22;20010;-77
2023/05/28 02:18:32;;;;;;;1999.90;999.90;;;9.80;99.90;;;;;;6315322;22;20011;-77
2023/05/28 02:20:58;;;;;;;1999.90;999.90;;;9.80;99.90;;;;;;6287234;22;20086;-78
2023/05/28 02:23:24;;;;;;;1999.90;999.90;;;9.80;99.90;;;;;;6314914;22;20086;-78
2023/05/28 02:25:49;;;;;;;1999.90;999.90;;;9.80;99.90;;;;;;6315241;22;20082;-77
2023/05/28 02:28:15;;;;;;;1999.90;999.90;;;9.70;99.90;;;;;;6315048;22;20008;-77
2023/05/28 02:30:40;;;;;;;1999.90;999.90;;;9.70;99.90;;;;;;6315055;22;20071;-77
2023/05/28 02:33:06;;;;;;;1999.90;999.90;;;9.70;99.90;;;;;;6286794;22;20008;-80
2023/05/28 02:35:32;;;;;;;1999.90;999.90;;;9.60;99.90;;;;;;6287391;22;20016;-77
2023/05/28 02:37:57;;;;;;;1999.90;999.90;;;9.60;99.90;;;;;;6314992;22;20309;-77
2023/05/28 02:40:23;;;;;;;1999.90;999.90;;;9.60;99.90;;;;;;6287498;22;20341;-77
2023/05/28 02:42:48;;;;;;;1999.90;999.90;;;9.60;99.90;;;;;;6339183;22;20008;-77
2023/05/28 02:45:14;;;;;;;1999.90;999.90;;;9.60;99.90;;;;;;6314691;22;20091;-77
2023/05/28 02:47:40;;;;;;;1999.90;999.90;;;9.50;99.90;;;;;;6314972;22;20019;-78
2023/05/28 02:50:06;;;;;;;1999.90;999.90;;;9.40;99.90;;;;;;6287321;22;20000;-80
2023/05/28 02:52:31;;;;;;;1999.90;999.90;;;9.40;99.90;;;;;;6286659;22;20437;-79
2023/05/28 02:54:57;;;;;;;1999.90;999.90;;;9.40;99.90;;;;;;6314673;22;20000;-77
2023/05/28 02:57:22;;;;;;;1999.90;999.90;;;9.40;99.90;;;;;;6314760;22;20007;-77
2023/05/28 02:59:48;;;;;;;1999.90;999.90;;;9.30;99.90;;;;;;6287327;22;20050;-80
2023/05/28 03:02:13;;;;;;;1999.90;999.90;;;9.30;99.90;;;;;;6287068;22;20087;-77
2023/05/28 03:04:39;;;;;;;1999.90;999.90;;;9.30;99.90;;;;;;6287042;22;20321;-77
2023/05/28 03:07:04;;;;;;;1999.90;999.90;;;9.40;99.90;;;;;;6314804;22;20332;-80
2023/05/28 03:09:30;;;;;;;1999.90;999.90;;;9.30;99.90;;;;;;6315074;22;20458;-77
2023/05/28 03:11:56;;;;;;;1999.90;999.90;;;9.20;99.90;;;;;;6314555;22;20008;-77
2023/05/28 03:14:21;;;;;;;1999.90;999.90;;;9.20;99.90;;;;;;6314731;22;20008;-77
2023/05/28 03:16:47;;;;;;;1999.90;999.90;;;9.30;99.90;;;;;;6314943;22;20082;-79
2023/05/28 03:19:12;;;;;;;1999.90;999.90;;;9.20;99.90;;;;;;6314741;22;20073;-77
2023/05/28 03:21:38;;;;;;;1999.90;999.90;;;9.20;99.90;;;;;;6314892;22;20046;-77
2023/05/28 03:24:04;;;;;;;1999.90;999.90;;;9.20;99.90;;;;;;6314436;22;20046;-77
2023/05/28 03:26:30;;;;;;;1999.90;999.90;;;9.10;99.90;;;;;;6314725;22;20495;-78
2023/05/28 03:28:55;;;;;;;1999.90;999.90;;;9.10;99.90;;;;;;6287238;22;20032;-77
2023/05/28 03:31:25;;;;;;;1999.90;999.90;;;9.10;99.90;;;;;;6314430;22;20004;-77
2023/05/28 03:33:50;;;;;;;1999.90;999.90;;;9.10;99.90;;;;;;6314591;22;20458;-78
2023/05/28 03:36:17;;;;;;;1999.90;999.90;;;9.10;99.90;;;;;;6314615;22;20015;-77
2023/05/28 03:38:43;;;;;;;1999.90;999.90;;;9.10;99.90;;;;;;6287161;22;20454;-78
2023/05/28 03:41:08;;;;;;;1999.90;999.90;;;9.00;99.90;;;;;;6286789;22;20015;-76
2023/05/28 03:43:34;;;;;;;1999.90;999.90;;;9.10;99.90;;;;;;6314621;22;20007;-77
2023/05/28 03:45:59;;;;;;;1999.90;999.90;;;9.20;99.90;;;;;;6314777;22;20008;-77
2023/05/28 03:48:25;;;;;;;1999.90;999.90;;;9.20;99.90;;;;;;6287176;22;20034;-77
2023/05/28 03:50:50;;;;;;;1999.90;999.90;;;9.10;99.90;;;;;;6314656;22;20141;-77
2023/05/28 03:53:16;;;;;;;1999.90;999.90;;;9.10;99.90;;;;;;6339108;22;20004;-77
2023/05/28 03:55:41;;;;;;;1999.90;999.90;;;9.20;99.90;;;;;;6314474;22;20443;-77
2023/05/28 03:58:08;;;;;;;1999.90;999.90;;;9.20;99.90;;;;;;6314775;22;20427;-77
2023/05/28 04:00:34;;;;;;;1999.90;999.90;;;9.10;99.90;;;;;;6287117;22;20011;-78
2023/05/28 04:03:00;;;;;;;1999.90;999.90;;;9.10;99.90;;;;;;6314594;22;20003;-76
2023/05/28 04:05:25;;;;;;;1999.90;999.90;;;9.10;99.90;;;;;;6286851;22;20050;-76
2023/05/28 04:07:51;;;;;;;1999.90;999.90;;;9.10;99.90;;;;;;6287184;22;20083;-77
2023/05/28 04:10:16;;;;;;;1999.90;999.90;;;9.10;99.90;;;;;;6314702;22;20012;-79
2023/05/28 04:12:42;;;;;;;1999.90;999.90;;;9.20;99.90;;;;;;6338888;22;20015;-76
2023/05/28 04:15:08;;;;;;;1999.90;999.90;;;9.30;99.90;;;;;;6314322;22;19999;-76
2023/05/28 04:17:35;;;;;;;1999.90;999.90;;;9.40;99.90;;;;;;6314095;22;20018;-77
2023/05/28 04:20:00;;;;;;;1999.90;999.90;;;9.40;99.90;;;;;;6314629;22;20004;-76
2023/05/28 04:22:26;;;;;;;1999.90;999.90;;;9.40;99.90;;;;;;6314212;22;20082;-76
2023/05/28 04:24:55;;;;;;;1999.90;999.90;;;9.50;99.90;;;;;;6286970;22;20007;-77
2023/05/28 04:27:21;;;;;;;1999.90;999.90;;;9.50;99.90;;;;;;6314646;22;20091;-77
2023/05/28 04:29:46;;;;;;;1999.90;999.90;;;9.50;99.90;;;;;;6287097;22;20054;-77
2023/05/28 04:32:12;;;;;;;1999.90;999.90;;;9.50;99.90;;;;;;6287091;22;20015;-77
2023/05/28 04:34:40;;;;;;;1999.90;999.90;;;9.50;99.90;;;;;;6287225;22;20340;-77
2023/05/28 04:37:07;;;;;;;1999.90;999.90;;;9.50;99.90;;;;;;6286193;22;20008;-77
2023/05/28 04:39:33;;;;;;;1999.90;999.90;;;9.60;99.90;;;;;;6286958;22;20012;-79
2023/05/28 04:41:59;;;;;;;1999.90;999.90;;;9.70;99.90;;;;;;6286432;22;20012;-77
2023/05/28 04:44:25;;;;;;;1999.90;999.90;;;9.90;99.90;;;;;;6338881;22;20489;-77
2023/05/28 04:46:51;;;;;;;1999.90;999.90;;;10.00;99.90;;;;;;6314518;22;20082;-77
2023/05/28 04:49:17;;;;;;;1999.90;999.90;;;10.10;99.90;;;;;;6314656;22;20410;-77
2023/05/28 04:51:43;;;;;;;1999.90;999.90;;;10.10;99.90;;;;;;6286594;22;20012;-77
2023/05/28 04:54:08;;;;;;;1999.90;999.90;;;10.20;99.90;;;;;;6314270;22;20030;-77
2023/05/28 04:56:35;;;;;;;1999.90;999.90;;;10.30;99.90;;;;;;6286812;22;20003;-78
2023/05/28 04:59:04;;;;;;;1999.90;999.90;;;10.40;99.90;;;;;;6314435;22;20663;-77
2023/05/28 05:01:32;;;;;;;1999.90;999.90;;;10.40;99.90;;;;;;6286212;22;20011;-76
2023/05/28 05:03:58;;;;;;;1999.90;999.90;;;10.50;99.90;;;;;;6313717;22;20094;-76
2023/05/28 05:06:23;;;;;;;1999.90;999.90;;;10.50;99.90;;;;;;6286737;22;20091;-77
2023/05/28 05:08:49;;;;;;;1999.90;999.90;;;10.70;99.90;;;;;;6314323;22;20053;-77
2023/05/28 05:11:15;;;;;;;1999.90;999.90;;;10.70;99.90;;;;;;6314018;22;20145;-76
2023/05/28 05:13:41;;;;;;;1999.90;999.90;;;10.80;99.90;;;;;;6314190;22;20003;-76
2023/05/28 05:16:06;;;;;;;1999.90;999.90;;;10.90;99.90;;;;;;6286798;22;20008;-76
2023/05/28 05:18:31;;;;;;;1999.90;999.90;;;11.00;99.90;;;;;;6314296;22;20043;-77
2023/05/28 05:20:57;;;;;;;1999.90;999.90;;;11.10;99.90;;;;;;6314188;22;20014;-77
2023/05/28 05:23:23;;;;;;;1999.90;999.90;;;11.20;99.90;;;;;;6286701;22;20378;-77
2023/05/28 05:25:48;;;;;;;1999.90;999.90;;;11.30;99.90;;;;;;6286460;22;20022;-77
2023/05/28 05:28:14;;;;;;;1999.90;999.90;;;11.40;99.90;;;;;;6314179;22;20004;-80
2023/05/28 05:30:40;;;;;;;1999.90;999.90;;;11.50;99.90;;;;;;6286729;22;20019;-76
2023/05/28 05:33:05;;;;;;;1999.90;999.90;;;11.50;99.90;;;;;;6286266;22;20007;-78
2023/05/28 05:35:31;;;;;;;1999.90;999.90;;;11.60;99.90;;;;;;6314021;22;20007;-76
2023/05/28 05:37:56;;;;;;;1999.90;999.90;;;11.70;99.90;;;;;;6286623;22;20011;-76
2023/05/28 05:40:22;;;;;;;1999.90;999.90;;;11.80;99.90;;;;;;6286611;22;20011;-76
2023/05/28 05:42:47;;;;;;;1999.90;999.90;;;11.90;99.90;;;;;;6286244;22;20007;-76
2023/05/28 05:45:13;;;;;;;1999.90;999.90;;;11.90;99.90;;;;;;6286621;22;20011;-77
2023/05/28 05:47:38;;;;;;;1999.90;999.90;;;12.00;99.90;;;;;;6316135;22;20393;-80
2023/05/28 05:50:04;;;;;;;1999.90;999.90;;;12.20;99.90;;;;;;6342580;22;20003;-80
2023/05/28 05:52:30;;;;;;;1999.90;999.90;;;12.30;99.90;;;;;;6342034;22;20018;-81
2023/05/28 05:54:55;;;;;;;1999.90;999.90;;;12.40;99.90;;;;;;6291299;22;20013;-79
2023/05/28 05:57:22;;;;;;;1999.90;999.90;;;12.40;99.90;;;;;;6290964;22;20082;-80
2023/05/28 05:59:47;;;;;;;1999.90;999.90;;;12.50;99.90;;;;;;6290946;22;20073;-80
2023/05/28 06:02:13;;;;;;;1999.90;999.90;;;12.60;99.90;;;;;;6290692;22;20343;-81
2023/05/28 06:04:38;;;;;;;1999.90;999.90;;;12.70;99.90;;;;;;6289867;22;20008;-80
2023/05/28 06:07:06;;;;;;;1999.90;999.90;;;12.70;99.90;;;;;;6290385;22;20023;-81
2023/05/28 06:09:33;;;;;;;1999.90;999.90;;;12.80;99.90;;;;;;6290448;22;20081;-81
2023/05/28 06:11:59;;;;;;;1999.90;999.90;;;12.90;99.90;;;;;;6318368;22;20525;-80
2023/05/28 06:14:26;;;;;;;1999.90;999.90;;;13.00;99.90;;;;;;6318238;22;20011;-80
2023/05/28 06:16:51;;;;;;;1999.90;999.90;;;13.10;99.90;;;;;;6289229;22;20015;-80
2023/05/28 06:19:17;;;;;;;1999.90;999.90;;;13.10;99.90;;;;;;6290713;22;20078;-80
2023/05/28 06:21:42;;;;;;;1999.90;999.90;;;13.20;99.90;;;;;;6290521;22;20004;-81
2023/05/28 06:24:08;;;;;;;1999.90;999.90;;;13.30;99.90;;;;;;6317673;22;20015;-80
2023/05/28 06:26:33;;;;;;;1999.90;999.90;;;13.40;99.90;;;;;;6317670;22;20016;-81
2023/05/28 06:28:59;;;;;;;1999.90;999.90;;;13.50;99.90;;;;;;6286543;22;20497;-77
2023/05/28 06:31:25;;;;;;;1999.90;999.90;;;13.60;99.90;;;;;;6315703;22;20059;-79
2023/05/28 06:33:50;;;;;;;1999.90;999.90;;;13.60;99.90;;;;;;6314910;22;20003;-80
2023/05/28 06:36:16;;;;;;;1999.90;999.90;;;13.70;99.90;;;;;;6313778;22;20012;-77
2023/05/28 06:38:42;;;;;;;1999.90;999.90;;;13.80;99.90;;;;;;6313938;22;20007;-78
2023/05/28 06:41:08;;;;;;;1999.90;999.90;;;14.00;99.90;;;;;;6287304;22;20008;-83
2023/05/28 06:43:33;;;;;;;1999.90;999.90;;;14.20;99.90;;;;;;6317445;22;20509;-82
2023/05/28 06:45:59;;;;;;;1999.90;999.90;;;14.40;99.90;;;;;;6290034;22;20360;-82
2023/05/28 06:48:25;;;;;;;1999.90;999.90;;;14.50;99.90;;;;;;6289679;22;20038;-78
2023/05/28 06:50:51;;;;;;;1999.90;999.90;;;14.70;99.80;;;;;;6313557;22;20003;-78
2023/05/28 06:53:16;;;;;;;1999.90;999.90;;;14.80;99.10;;;;;;6286079;22;20057;-78
2023/05/28 06:55:42;;;;;;;1999.90;999.90;;;14.90;99.90;;;;;;6314087;22;20008;-79
2023/05/28 06:58:07;;;;;;;1999.90;999.90;;;15.10;99.50;;;;;;6287218;22;20494;-76
2023/05/28 07:00:33;;;;;;;1999.90;999.90;;;15.20;98.70;;;;;;6314903;22;20010;-81
2023/05/28 07:02:59;;;;;;;1999.90;999.90;;;15.50;98.60;;;;;;6317788;22;20006;-80
2023/05/28 07:05:24;;;;;;;1999.90;999.90;;;15.70;98.00;;;;;;6343707;22;20039;-82
2023/05/28 07:07:50;;;;;;;1999.90;999.90;;;15.90;98.30;;;;;;6290336;22;20014;-80
2023/05/28 07:10:16;;;;;;;1999.90;999.90;;;16.20;97.60;;;;;;6291332;22;20003;-82
2023/05/28 07:12:41;;;;;;;1999.90;999.90;;;16.40;97.10;;;;;;6290713;22;20436;-82
2023/05/28 07:15:08;;;;;;;1999.90;999.90;;;16.50;96.20;;;;;;6291478;22;20007;-83
2023/05/28 07:17:34;;;;;;;1999.90;999.90;;;16.60;96.10;;;;;;6291184;22;20537;-81
2023/05/28 07:19:59;;;;;;;1999.90;999.90;;;16.90;95.60;;;;;;6320698;22;20050;-81
2023/05/28 07:22:26;;;;;;;1999.90;999.90;;;17.10;96.00;;;;;;6342553;22;20003;-79
2023/05/28 07:24:51;;;;;;;1999.90;999.90;;;17.20;94.80;;;;;;6291775;22;20007;-81
2023/05/28 07:27:20;;;;;;;1999.90;999.90;;;17.40;95.60;;;;;;6291849;22;20018;-86
2023/05/28 07:29:52;;;;;;;1999.90;999.90;;;17.80;94.50;;;;;;6290853;22;20004;-80
2023/05/28 07:32:18;;;;;;;1999.90;999.90;;;17.90;93.60;;;;;;6343183;22;20031;-79
2023/05/28 07:34:43;;;;;;;1999.90;999.90;;;18.30;92.80;;;;;;6292815;22;20004;-81
2023/05/28 07:37:09;;;;;;;1999.90;999.90;;;18.50;91.90;;;;;;6320620;22;20435;-81
2023/05/28 07:39:34;;;;;;;1999.90;999.90;;;18.60;92.50;;;;;;6343432;22;20750;-79
2023/05/28 07:42:00;;;;;;;1999.90;999.90;;;18.90;91.40;;;;;;6290004;22;20458;-79
2023/05/28 07:44:26;;;;;;;1999.90;999.90;;;19.20;90.70;;;;;;6292065;22;20014;-82
2023/05/28 07:46:51;;;;;;;1999.90;999.90;;;19.30;90.30;;;;;;6292108;22;20018;-81
2023/05/28 07:49:17;;;;;;;1999.90;999.90;;;19.30;90.30;;;;;;6344269;22;20007;-81
2023/05/28 07:51:43;;;;;;;1999.90;999.90;;;19.40;89.90;;;;;;6318848;22;20004;-81
2023/05/28 07:54:11;;;;;;;1999.90;999.90;;;19.50;90.00;;;;;;6319359;22;20014;-84
2023/05/28 07:56:37;;;;;;;1999.90;999.90;;;19.80;90.00;;;;;;6290924;22;20473;-80
2023/05/28 07:59:04;;;;;;;1999.90;999.90;;;20.10;89.20;;;;;;6291036;22;20038;-80
2023/05/28 08:01:30;;;;;;;1999.90;999.90;;;20.00;88.50;;;;;;6287199;22;20014;-80
2023/05/28 08:03:56;;;;;;;1999.90;999.90;;;20.10;89.10;;;;;;6317800;22;20031;-84
2023/05/28 08:06:21;;;;;;;1999.90;999.90;;;20.10;88.90;;;;;;6291360;22;20003;-83
2023/05/28 08:08:47;;;;;;;1999.90;999.90;;;20.00;89.90;;;;;;6344907;22;20110;-80
2023/05/28 08:11:13;;;;;;;1999.90;999.90;;;20.30;89.10;;;;;;6314477;22;20004;-79
2023/05/28 08:13:42;;;;;;;1999.90;999.90;;;20.50;88.30;;;;;;6344222;22;20465;-80
2023/05/28 08:16:11;;;;;;;1999.90;999.90;;;20.50;87.50;;;;;;6314597;22;20075;-79
2023/05/28 08:18:38;;;;;;;1999.90;999.90;;;20.60;87.20;;;;;;6286641;22;20058;-78
2023/05/28 08:21:05;;;;;;;1999.90;999.90;;;20.70;89.90;;;;;;6286632;22;20011;-78
2023/05/28 08:23:34;;;;;;;1999.90;999.90;;;20.70;86.00;;;;;;6339637;22;20062;-78
2023/05/28 08:26:01;;;;;;;1999.90;999.90;;;20.90;86.00;;;;;;6339665;22;20070;-78
2023/05/28 08:28:27;;;;;;;1999.90;999.90;;;21.00;86.10;;;;;;6314650;22;20010;-78
2023/05/28 08:30:53;;;;;;;1999.90;999.90;;;21.00;84.70;;;;;;6313860;22;20146;-78
2023/05/28 08:33:19;;;;;;;1999.90;999.90;;;20.90;85.70;;;;;;6286721;22;20094;-79
2023/05/28 08:35:44;;;;;;;1999.90;999.90;;;21.30;82.50;;;;;;6287490;22;20007;-79
2023/05/28 08:38:10;;;;;;;1999.90;999.90;;;21.30;85.80;;;;;;6287987;22;20402;-79
2023/05/28 08:40:40;;;;;;;1999.90;999.90;;;21.60;83.90;;;;;;6314427;22;20043;-79
2023/05/28 08:43:06;;;;;;;1999.90;999.90;;;21.50;85.50;;;;;;6286615;22;20095;-78
2023/05/28 08:45:34;;;;;;;1999.90;999.90;;;21.80;83.60;;;;;;6314388;22;20418;-79
2023/05/28 08:47:59;;;;;;;1999.90;999.90;;;22.00;80.30;;;;;;6314241;22;20011;-78
2023/05/28 08:50:27;;;;;;;1999.90;999.90;;;22.20;80.80;;;;;;6287083;22;20301;-79
2023/05/28 08:52:52;;;;;;;1999.90;999.90;;;22.30;83.20;;;;;;6314090;22;20585;-78
2023/05/28 08:55:18;;;;;;;1999.90;999.90;;;22.40;80.70;;;;;;6314266;22;20083;-79
2023/05/28 08:57:45;;;;;;;1999.90;999.90;;;22.60;78.70;;;;;;6286852;22;20012;-79
2023/05/28 09:00:12;;;;;;;1999.90;999.90;;;22.80;78.20;;;;;;6286915;22;20079;-79
2023/05/28 09:02:38;;;;;;;1999.90;999.90;;;22.90;77.70;;;;;;6314097;22;20011;-79
2023/05/28 09:05:05;;;;;;;1999.90;999.90;;;22.80;78.80;;;;;;6286170;22;20011;-78
2023/05/28 09:07:30;;;;;;;1999.90;999.90;;;23.10;76.90;;;;;;6314237;22;20099;-79
2023/05/28 09:09:57;;;;;;;1999.90;999.90;;;23.30;74.90;;;;;;6286699;22;20075;-79
2023/05/28 09:12:23;;;;;;;1999.90;999.90;;;23.10;78.60;;;;;;6314017;22;20018;-79
2023/05/28 09:14:52;;;;;;;1999.90;999.90;;;23.10;77.80;;;;;;6313951;22;20007;-78
2023/05/28 09:17:33;;;;;;;1999.90;999.90;;;23.10;76.70;;;;;;6286621;22;20447;-79
2023/05/28 09:20:04;;;;;;;1999.90;999.90;;;23.10;79.30;;;;;;6338674;22;20016;-79
2023/05/28 09:22:31;;;;;;;1999.90;999.90;;;23.50;76.90;;;;;;6285961;22;20015;-78
2023/05/28 09:24:56;;;;;;;1999.90;999.90;;;23.70;75.30;;;;;;6286510;22;20026;-79
2023/05/28 09:27:23;;;;;;;1999.90;999.90;;;23.90;74.40;;;;;;6286599;22;20020;-79
2023/05/28 09:29:49;;;;;;;1999.90;999.90;;;24.30;74.90;;;;;;6286672;22;20062;-79
2023/05/28 09:32:22;;;;;;;1999.90;999.90;;;23.90;75.10;;;;;;6314086;22;20047;-79
2023/05/28 09:34:50;;;;;;;1999.90;999.90;;;23.80;73.20;;;;;;6314048;22;20015;-79
2023/05/28 09:37:17;;;;;;;1999.90;999.90;;;23.90;71.90;;;;;;6314333;22;20036;-79
2023/05/28 09:39:43;;;;;;;1999.90;999.90;;;23.80;72.80;;;;;;6314586;22;20474;-79
2023/05/28 09:42:10;;;;;;;1999.90;999.90;;;23.60;71.60;;;;;;6313819;22;20075;-79
2023/05/28 09:44:37;;;;;;;1999.90;999.90;;;23.80;71.20;;;;;;6286737;22;20019;-78
2023/05/28 09:47:17;;;;;;;1999.90;999.90;;;23.90;74.50;;;;;;6286261;22;20355;-79
2023/05/28 09:49:47;;;;;;;1999.90;999.90;;;24.10;71.00;;;;;;6314297;22;20093;-79
2023/05/28 09:52:20;;;;;;;1999.90;999.90;;;24.10;71.50;;;;;;6286073;22;20062;-79
2023/05/28 09:54:55;;;;;;;1999.90;999.90;;;24.20;71.90;;;;;;6314053;22;20079;-79
2023/05/28 09:57:26;;;;;;;1999.90;999.90;;;24.30;74.20;;;;;;6314278;22;20007;-79
2023/05/28 09:59:56;;;;;;;1999.90;999.90;;;24.50;72.30;;;;;;6313823;22;20011;-79
2023/05/28 10:02:30;;;;;;;1999.90;999.90;;;24.60;69.90;;;;;;6313965;22;20007;-78
2023/05/28 10:04:59;;;;;;;1999.90;999.90;;;24.40;70.40;;;;;;6286185;22;20083;-79
2023/05/28 10:07:28;;;;;;;1999.90;999.90;;;24.20;71.10;;;;;;6313823;22;20016;-78
2023/05/28 10:09:55;;;;;;;1999.90;999.90;;;24.60;72.20;;;;;;6314068;22;20792;-79
2023/05/28 10:12:25;;;;;;;1999.90;999.90;;;24.90;65.90;;;;;;6313620;22;20106;-79
2023/05/28 10:14:51;;;;;;;1999.90;999.90;;;25.10;64.50;;;;;;6313771;22;20007;-78
2023/05/28 10:17:17;;;;;;;1999.90;999.90;;;24.90;64.20;;;;;;6286278;22;20039;-78
2023/05/28 10:19:45;;;;;;;1999.90;999.90;;;25.30;64.70;;;;;;6313815;22;20074;-79
2023/05/28 10:22:13;;;;;;;1999.90;999.90;;;25.50;63.70;;;;;;6285606;22;20391;-79
2023/05/28 10:24:39;;;;;;;1999.90;999.90;;;25.60;67.50;;;;;;6313331;22;20444;-78
2023/05/28 10:27:08;;;;;;;1999.90;999.90;;;25.40;64.80;;;;;;6313724;22;20007;-78
2023/05/28 10:29:41;;;;;;;1999.90;999.90;;;25.60;65.70;;;;;;6313864;22;20000;-79
2023/05/28 10:32:07;;;;;;;1999.90;999.90;;;25.90;66.90;;;;;;6313464;22;20431;-78
2023/05/28 10:34:35;;;;;;;1999.90;999.90;;;25.80;62.10;;;;;;6286225;22;20811;-79
2023/05/28 10:37:02;;;;;;;1999.90;999.90;;;26.00;63.50;;;;;;6287346;22;20039;-79
2023/05/28 10:39:37;;;;;;;1999.90;999.90;;;25.90;64.50;;;;;;6287554;22;20064;-79
2023/05/28 10:42:03;;;;;;;1999.90;999.90;;;26.10;63.20;;;;;;6314874;22;20015;-79
2023/05/28 10:45:10;;;;;;;1999.90;999.90;;;26.10;62.00;;;;;;6287321;22;20474;-79
2023/05/28 10:47:37;;;;;;;1999.90;999.90;;;26.10;62.80;;;;;;6315183;22;20439;-78
2023/05/28 10:50:12;;;;;;;1999.90;999.90;;;26.00;62.10;;;;;;6314994;22;19999;-79
2023/05/28 10:52:38;;;;;;;1999.90;999.90;;;26.30;61.90;;;;;;6314816;22;20008;-78
2023/05/28 10:55:06;;;;;;;1999.90;999.90;;;26.00;62.50;;;;;;6314707;22;20087;-79
2023/05/28 10:57:48;;;;;;;1999.90;999.90;;;26.00;63.40;;;;;;6287181;22;20014;-78
2023/05/28 11:00:23;;;;;;;1999.90;999.90;;;26.40;63.10;;;;;;6315061;22;20039;-78
2023/05/28 11:02:51;;;;;;;1999.90;999.90;;;26.40;61.50;;;;;;6287189;22;20034;-78
2023/05/28 11:05:22;;;;;;;1999.90;999.90;;;27.10;60.40;;;;;;6286923;22;20018;-79
2023/05/28 11:07:48;;;;;;;1999.90;999.90;;;27.10;61.70;;;;;;6315252;22;20008;-79
2023/05/28 11:10:15;;;;;;;1999.90;999.90;;;26.70;60.90;;;;;;6314971;22;20004;-79
2023/05/28 11:12:42;;;;;;;1999.90;999.90;;;26.60;61.70;;;;;;6314689;22;20042;-79
2023/05/28 11:15:12;;;;;;;1999.90;999.90;;;26.40;62.50;;;;;;6314572;22;20469;-79
2023/05/28 11:17:39;;;;;;;1999.90;999.90;;;26.90;59.80;;;;;;6287160;22;20011;-78
2023/05/28 11:20:16;;;;;;;1999.90;999.90;;;27.00;64.40;;;;;;6315090;22;20000;-78
2023/05/28 11:22:41;;;;;;;1999.90;999.90;;;26.80;61.30;;;;;;6286998;22;20481;-78
2023/05/28 11:25:08;;;;;;;1999.90;999.90;;;26.90;60.50;;;;;;6314858;22;20023;-79
2023/05/28 11:27:37;;;;;;;1999.90;999.90;;;27.00;59.80;;;;;;6314749;22;20007;-78
2023/05/28 11:30:06;;;;;;;1999.90;999.90;;;26.80;62.10;;;;;;6314206;22;20079;-79
2023/05/28 11:32:43;;;;;;;1999.90;999.90;;;27.10;63.70;;;;;;6314541;22;20395;-78
2023/05/28 11:35:13;;;;;;;1999.90;999.90;;;27.30;62.10;;;;;;6314526;22;20058;-79
2023/05/28 11:37:40;;;;;;;1999.90;999.90;;;27.50;57.90;;;;;;6314918;22;20010;-78
2023/05/28 11:40:10;;;;;;;1999.90;999.90;;;27.70;57.40;;;;;;6287348;22;20008;-79
2023/05/28 11:42:43;;;;;;;1999.90;999.90;;;27.80;58.50;;;;;;6287073;22;20095;-79
2023/05/28 11:45:11;;;;;;;1999.90;999.90;;;27.70;62.10;;;;;;6287139;22;20008;-79
2023/05/28 11:47:37;;;;;;;1999.90;999.90;;;27.50;56.60;;;;;;6286975;22;20022;-79
2023/05/28 11:50:14;;;;;;;1999.90;999.90;;;27.60;58.00;;;;;;6314760;22;20051;-79
2023/05/28 11:52:40;;;;;;;1999.90;999.90;;;27.70;57.20;;;;;;6314371;22;20454;-79
2023/05/28 11:55:06;;;;;;;1999.90;999.90;;;27.70;57.20;;;;;;6339019;22;20004;-79
2023/05/28 11:57:39;;;;;;;1999.90;999.90;;;27.80;66.40;;;;;;6314752;22;20008;-79
2023/05/28 12:00:16;;;;;;;1999.90;999.90;;;28.20;57.60;;;;;;6287296;22;20003;-79